Choose a state:
Most recent flow and stage for Oklahoma
(Stations highlighted in red are currently above flood stage)
USGS
station
ID
USGS station name NWS
flood
stage
(ft)
Most recent
stage
(ft)
Most recent
flow
(cfs)
Historical
peaks
(cfs)
Most recent
local
date/time
NWS
station
ID
07148400 Salt Fork Arkansas River nr Alva, OK 14.5 2.74 106 27,000 2019-12-10 18:30:00 AVAO2
07149520 Salt Fork Arkansas River at SH 11 nr Cherokee, OK   7.92 286 7,320 2019-12-10 17:00:00  
07151000 Salt Fork Arkansas River at Tonkawa, OK 17 4.28 474 97,300 2019-12-10 18:30:00 TONO2
07152000 Chikaskia River near Blackwell, OK 29 3.00 157 100,000 2019-12-10 18:30:00 BLKO2
07152500 Arkansas River at Ralston, OK 16 3.80 400 211,000 2019-12-10 18:15:00 RLSO2
07153000 Black Bear Creek at Pawnee, OK 17 2.05 38.3 30,200 2019-12-10 18:30:00 PAWO2
07154500 Cimarron River near Kenton, OK 20 5.29 0.00 43,400 2019-12-10 18:15:00 KENO2
07156900 Cimarron River near Forgan, OK 5 2.32 16.8 69,000 2019-12-10 18:00:00 FRGO2
07157950 Cimarron River near Buffalo, OK 9 3.47 46.0 26,400 2019-12-10 18:30:00 BFFO2
07158000 Cimarron River near Waynoka, OK 8 5.78 96.5 94,500 2019-12-10 18:30:00 WANO2
07159100 Cimarron River near Dover, OK 17 9.82 170 123,000 2019-12-10 18:30:00 DOVO2
07159550 Lake Hefner at Oklahoma City, OK   1199.31

 

  2019-12-10 18:45:00  
07159750 Cottonwood Creek near Seward, OK 30 4.37 85.9 43,500 2019-12-10 18:30:00 SWDO2
07160000 Cimarron River near Guthrie, OK 18 6.16 448 158,000 2019-12-10 18:30:00 GTRO2
07160350 Skeleton Creek at Enid, OK   2.58 5.34 9,860 2019-12-10 18:00:00 ESCO2
07160500 Skeleton Creek near Lovell, OK   10.23 39.5 75,200 2019-12-10 18:30:00  
07161450 Cimarron River near Ripley, OK 17 7.60 539 141,000 2019-12-10 18:00:00 RIPO2
07164500 Arkansas River at Tulsa, OK 18 3.07 5,700 307,000 2019-12-10 18:30:00 TLSO2
07164600 Joe Creek at 61st St at Tulsa, OK 8 0.56 4.12 12,700 2019-12-10 18:50:00 TJOO2
07165562 Haikey Creek at 101st St South at Tulsa, OK 16 4.52 3.30 7,100 2019-12-10 18:40:00 THCO2
07165565 Little Haikey Creek at 101st St South at Tulsa, OK   5.37 1.32 4,300 2019-12-10 18:50:00  
07165570 Arkansas River near Haskell, OK 19 4.96 6,440 259,000 2019-12-10 18:00:00 HSKO2
07171000 Verdigris River near Lenapah, OK 30 4.94 457 192,000 2019-12-10 18:00:00 LEPO2
07174400 Caney River above Coon Creek at Bartlesville, OK 13 3.07 44.5 94,500 2019-12-10 18:00:00 BVLO2
07174470 Caney River at Tuxedo Blvd at Bartlesville, OK   5.71

 

  2019-12-10 18:45:00  
07174618 Sand Creek Below Little Rock Creek near Okesa, OK   7.29

 

  2019-12-10 18:00:00 OKEO2
07175500 Caney River near Ramona, OK 26 3.41 173 85,600 2019-12-10 17:45:00 RAMO2
07176000 Verdigris River near Claremore, OK 36 7.64 3,870 182,000 2019-12-10 18:30:00 CLRO2
07176321 Bird Creek at SH 99 at Pawhuska, OK   5.64 40.7 20,000 2019-12-10 18:45:00  
07176500 Bird Creek at Avant, OK 17 3.74 72.2 32,400 2019-12-10 18:30:00 AVTO2
07176950 Hominy Creek near Hominy, OK   6.37 15.2 20,500 2019-12-10 18:00:00  
07177500 Bird Creek near Sperry, OK 21 1.95 188 90,000 2019-12-10 18:00:00 SPEO2
07177650 Flat Rock Creek at Cincinnati Ave at Tulsa, OK   3.92 1.19 8,290 2019-12-10 18:45:00  
07177800 Coal Creek at Tulsa, OK   4.96 4.13 6,010 2019-12-10 18:45:00  
07178000 Bird Creek near Owasso, OK 18 5.15 329 29,200 2019-12-10 18:00:00 OWSO2
07178200 Bird Ck at State Highway 266 near Catoosa, OK   5.09 451 27,400 2019-12-10 18:30:00  
07178452 Verdigris River near Catoosa, OK   33.60

 

  2019-12-10 18:45:00  
07178645 Verdigris River near Wagoner, OK   12.95

 

  2019-12-10 18:00:00  
07185000 Neosho River near Commerce, OK 15 3.06 809 267,000 2019-12-10 18:30:00 COMO2
07185030 Elm Creek near Commerce, OK   6.62 2.35 1,720 2019-12-10 18:00:00  
07185080 Neosho River at Miami, OK   742.23

 

  2019-12-10 18:45:00  
07185090 Tar Creek near Commerce, OK   8.47 6.02 5,420 2019-12-10 18:15:00  
07185095 Tar Creek at 22nd Street Bridge at Miami, OK   4.06 16.6 12,400 2019-12-10 18:15:00  
07188000 Spring River near Quapaw, OK 20 7.81 1,800 230,000 2019-12-10 18:00:00 QUAO2
07188005 Beaver Creek near Quapaw, OK   2.31 3.79 1,210 2019-12-10 18:10:00  
07189000 Elk River near Tiff City, Mo 15 4.79 1,040 137,000 2019-12-10 18:30:00 TIFM7
07189540 Cave Springs Branch near South West City, MO   4.69 13.1 4,330 2019-12-10 18:00:00  
07189542 Honey Creek near South West City, MO   4.64 67.4 19,300 2019-12-10 18:30:00  
07190000 Lake O' the Cherokees at Langley, OK   741.96

 

  2019-12-10 18:00:00 PENO2
07190100 Neosho River (service road) near Langley, OK   16.09

 

  2019-12-10 18:00:00  
07190500 Neosho River near Langley, OK   13.77 9,370 300,000 2019-12-10 18:15:00  
07191000 Big Cabin Creek near Big Cabin, OK   13.42 137 63,000 2019-12-10 18:30:00  
07191160 Spavinaw Creek near Maysville, AR   7.27 113 14,800 2019-12-10 18:30:00  
07191179 Spavinaw Creek near Cherokee City, AR   6.61 158 15,100 2019-12-10 18:15:00  
07191220 Spavinaw Creek near Sycamore, OK   5.05 174 39,800 2019-12-10 18:30:00  
071912213 Spavinaw Creek near Colcord, OK   8.73 381 27,700 2019-12-10 18:15:00  
07191222 Beaty Creek near Jay, OK   5.85 64.0 26,700 2019-12-10 18:15:00  
07191285 Lake Eucha near Eucha, OK   778.17

 

  2019-12-10 18:45:00 NNEO2
07191288 Spavinaw Creek near Eucha, OK   9.10 449 79,600 2019-12-10 18:45:00  
07191300 Spavinaw Lake at Spavinaw, OK   680.44

 

  2019-12-10 18:30:00 SPAO2
07191400 Lake Hudson near Locust Grove, OK   620.22

 

  2019-12-10 18:00:00 MFDO2
07191500 Neosho River near Chouteau, OK   7.35 944 400,000 2019-12-10 18:00:00  
07192100 Spring Creek near Locust Grove, OK   12.60 124   2019-12-10 18:45:00  
07194500 Arkansas River near Muskogee, OK 28 19.03 25,900 700,000 2019-12-10 18:00:00 MKGO2
07194555 Arkansas River at Gore, OK   61.08

 

  2019-12-10 18:45:00  
07195500 Illinois River near Watts, OK 13 4.28 1,000 128,000 2019-12-10 18:30:00 WTTO2
07195855 Flint Creek near West Siloam Springs, OK   5.06 116 15,900 2019-12-10 18:30:00  
07195865 Sager Creek near West Siloam Springs, OK   5.69 16.5 5,020 2019-12-10 18:15:00  
07196000 Flint Creek near Kansas, OK 11 6.60 246 44,400 2019-12-10 18:30:00 KNSO2
07196090 Illinois River at Chewey, OK 12 5.19 1,510 124,000 2019-12-10 18:15:00 CWYO2
07196320 Illinois River near Moodys, OK   5.39

 

  2019-12-10 18:00:00  
07196500 Illinois River near Tahlequah, OK 11 7.00 1,890 150,000 2019-12-10 18:30:00 TALO2
07197000 Baron Fork at Eldon, OK 18 6.83 554 63,400 2019-12-10 18:30:00 ELDO2
07197360 Caney Creek near Barber, OK   6.40 127 13,100 2019-12-10 18:00:00  
07198000 Illinois River near Gore, OK 23 11.57 4,050 180,000 2019-12-10 18:30:00 GORO2
07228500 Canadian River at Bridgeport, OK 14 10.16 291 150,000 2019-12-10 18:30:00 BRIO2
07228940 Canadian River near Mustang, OK 12 1.80 327 73,500 2019-12-10 18:00:00 TUCO2
07229050 Canadian River at Norman, OK 94 87.15 312 49,700 2019-12-10 18:00:00 NRCO2
07229200 Canadian River at Purcell, OK 12 4.32 320 102,000 2019-12-10 18:30:00 PRCO2
07229300 Walnut Creek at Purcell, OK   4.03 31.4 67,700 2019-12-10 18:30:00  
07229445 Stanley Draper Lake near Oklahoma City, OK   1189.78

 

  2019-12-10 18:30:00  
07229900 Lake Thunderbird near Norman, OK   1039.00

 

  2019-12-10 18:00:00  
07230000 Little River blw Lk Thunderbird nr Norman, OK   3.05 0.72 34,600 2019-12-10 18:00:00  
07230500 Little River near Tecumseh, OK 11 4.46 6.98 60,000 2019-12-10 18:30:00 TCMO2
07231000 Little River near Sasakwa, OK 26 3.44 62.9 44,600 2019-12-10 18:30:00 SASO2
07231500 Canadian River at Calvin, OK 20 7.13 836 174,000 2019-12-10 18:00:00 CLVO2
07232470 Beaver River near Goodwell, OK 24 6.07

 

114 2019-12-10 18:30:00 GBRO2
07234000 Beaver River at Beaver, OK 9 2.23 0.20 70,000 2019-12-10 18:00:00 BVRO2
07235600 Wolf Creek nr Gage, OK   5.82 10.2 2,090 2019-12-10 18:30:00  
07237500 North Canadian River at Woodward, OK 9 3.36 71.1 42,000 2019-12-10 18:00:00 WDGO2
07238000 North Canadian River near Seiling, OK 11 5.17 121 33,000 2019-12-10 18:00:00 SEIO2
07238500 Canton Lake near Canton, OK   1616.01

 

  2019-12-10 18:00:00  
07239000 North Canadian River at Canton, OK   13.10

 

24,800 2019-12-10 18:00:00  
07239300 North Canadian River blw Weavers Ck nr Watonga, OK 15 8.87 153 7,220 2019-12-10 18:30:00 WATO2
07239450 North Canadian River near Calumet, OK   5.18 223 23,900 2019-12-10 18:00:00  
07239500 North Canadian River near El Reno, OK 17 4.42 229 23,800 2019-12-10 18:00:00 ELNO2
07239700 North Canadian River near Yukon, OK 14 2.20 242 25,100 2019-12-10 18:30:00 YUKO2
07240000 Lake Hefner Canal near Oklahoma City, OK   5.88 36.3   2019-12-10 18:30:00  
07240200 North Canadian R at Hwy 66 at Oklahoma City, OK   1238.26

 

  2019-12-10 18:30:00  
07240500 Lake Overholser near Oklahoma City, OK   1241.72

 

  2019-12-10 18:00:00  
07241000 North Canadian River blw Lk Overholser nr OKC, OK 24 4.98 51.0 135,000 2019-12-10 18:00:00 OLBO2
07241520 North Canadian River at Britton Rd at OKC, OK 17 6.54 160 38,100 2019-12-10 18:00:00 OKBO2
07241550 North Canadian River near Harrah, OK 14 5.08 439 27,200 2019-12-10 18:00:00 HRHO2
07241588 Wes Watkins Reservoir near McLoud, OK   1074.10

 

  2019-12-10 18:00:00  
07241600 Shawnee Lake No 1 at Shawnee, OK   1074.97

 

  2019-12-10 18:00:00  
07241780 Squirrel Creek at Shawnee, OK   2.50 0.35 1,380 2019-12-10 18:00:00  
07241800 North Canadian River at Shawnee, OK   10.01 345 23,500 2019-12-10 17:30:00 SNCO2
07242000 North Canadian River near Wetumka, OK 24 6.30 408 66,000 2019-12-10 18:00:00 WETO2
07242380 Deep Fork at Warwick, OK   4.75 55.7 34,600 2019-12-10 18:00:00  
07243500 Deep Fork near Beggs, OK 18 2.30 385 66,800 2019-12-10 18:15:00 BGSO2
07245000 Canadian River near Whitefield, OK   3.29 2,420 281,000 2019-12-10 18:30:00 WHTO2
07246500 Arkansas River near Sallisaw, OK   13.01

 

544,000 2019-12-10 18:45:00  
07247015 Poteau River at Loving, OK   10.12 81.4 37,000 2019-12-10 18:30:00 LVNO2
07247250 Black Fork below Big Creek nr Page, OK   5.22 54.5 36,000 2019-12-10 18:00:00  
07247500 Fourche Maline near Red Oak, OK   3.17 53.8 41,500 2019-12-10 18:30:00  
07249413 Poteau River near Panama, OK 29 18.81 4,340 82,100 2019-12-10 18:30:00 PANO2
07249455 Arkansas River at Ft. Smith, Ar.   11.51 25,400 414,000 2019-12-10 18:15:00  
07249800 Lee Creek at Short, OK   3.09 206 63,500 2019-12-10 18:15:00  
07249920 Little Lee Creek near Nicut, OK   1.34 113 27,800 2019-12-10 18:00:00  
07249985 Lee Creek near Short, OK   2.81 483 111,000 2019-12-10 18:30:00  
07250500 Arkansas River near Van Buren, AR 22 19.17

 

850,000 2019-12-10 18:00:00 VBUA4
07300500 Salt Fork Red River at Mangum, OK   2.64 12.4 72,000 2019-12-10 18:45:00 MGMO2
07301110 Salt Fork Red River near Elmer, OK   6.78 48.6 44,900 2019-12-10 18:00:00 ESFO2
07301420 Sweetwater Creek near Sweetwater, OK   6.95 11.0 1,940 2019-12-10 18:00:00  
07301481 North Fork Red River near Sayre, OK   2.92

 

  2019-12-10 18:00:00 SAYO2
07301500 North Fork Red River near Carter, OK 16 5.31 82.6 53,400 2019-12-10 18:00:00 CARO2
07302500 Lake Altus at Lugert, OK   1545.52

 

  2019-12-10 18:30:00 ALTO2
07302520 Lugert Drainage Ditch at Lugert, OK   0.27

 

  2019-12-10 18:00:00  
07303000 North Fork Red River blw Altus Dam nr Lugert, OK   5.48 2.20 16,100 2019-12-10 18:45:00  
07303400 Elm Fork of North Fork Red River nr Carl, OK   6.41 *** 62,300 2019-12-10 18:00:00 CRLO2
07305000 North Fork Red River near Headrick, OK 14 6.39 59.1 60,000 2019-12-10 18:00:00 HEAO2
07307010 Otter Creek near Snyder, OK   5.84

 

5,240 2019-11-13 06:00:00  
07307028 North Fork Red River near Tipton, OK   5.96 97.0 57,200 2019-12-10 18:30:00 TIPO2
07308990 Lake Ellsworth near Elgin, OK   1229.62

 

  2019-12-10 18:45:00 ELWO2
07309500 Lake Lawtonka near Lawton, OK   1340.26

 

  2019-12-10 18:30:00 LTLO2
07309990 East Cache Creek nr Lawton, OK   5.05 11.7 23,800 2019-12-10 18:00:00  
07311000 East Cache Creek near Walters, OK 21 4.96 33.8 50,900 2019-12-10 18:30:00 WLTO2
07311240 West Cache Creek near Cookietown, OK   6.09 Rat 15,400 2019-12-10 18:00:00  
07311415 Lake Frederick nr Frederick, OK   1197.42

 

  2019-12-10 18:30:00  
07311500 Deep Red Creek near Randlett, OK 20 2.83 19.2 72,300 2019-12-10 18:30:00 RNDO2
07312920 Beaver Creek nr Hulen, OK   8.40

 

  2019-12-10 18:45:00  
07313000 Little Beaver Creek near Duncan, OK   7.69

 

47,500 2019-12-10 18:45:00  
07313585 Cow Creek nr Addington, OK   2.68

 

  2019-12-10 18:45:00  
07315500 Red Rv nr Terral, OK 22 6.54 327 236,000 2019-12-10 18:00:00 TRLO2
07315650 Red River nr Courtney, OK   11.08

 

  2019-12-10 18:30:00  
07315700 Mud Creek near Courtney, OK   7.62 4.25 64,300 2019-12-07 22:30:00 CORO2
07316000 Red River near Gainesville, TX 25 8.02 547 265,000 2019-12-10 18:00:00 GSVT2
07316500 Washita River near Cheyenne, OK 13.5 6.95 9.56 69,800 2019-12-10 18:00:00 CHYO2
07324200 Washita River near Hammon, OK   8.51 46.5 167,000 2019-12-10 18:45:00 HMMO2
07324300 Foss Reservoir near Foss, OK   1641.51

 

  2019-12-10 18:00:00 FOSO2
07324400 Washita River near Foss, OK   6.68 6.06 14,000 2019-12-10 18:45:00 FBFO2
07325000 Washita River near Clinton, OK 18 5.49 49.0 90,000 2019-12-10 18:30:00 CLIO2
07325500 Washita River at Carnegie, OK 25 4.26

 

50,000 2019-12-10 18:00:00 CAGO2
07325800 Cobb Creek near Eakly, OK   3.67 24.4 12,000 2019-12-10 18:30:00  
07325840 Lake Creek near Sickles, OK   3.96 2.66 1,630 2019-12-10 18:45:00  
07325850 Lake Creek near Eakly, OK   5.83 6.23 8,310 2019-12-10 18:00:00  
07325860 Willow Creek near Albert, OK   2.30 3.88 12,000 2019-12-10 18:30:00  
07325900 Fort Cobb Reservoir near Fort Cobb, OK   1342.21

 

  2019-12-10 18:00:00  
07326000 Cobb Creek near Fort Cobb, OK   3.49 5.54 51,000 2019-12-10 18:00:00  
07326500 Washita River at Anadarko, OK 19 7.88 525 52,800 2019-12-10 18:30:00 ANDO2
07327442 Little Washita River near Cyril, OK   10.25 2.23 3,120 2019-12-10 18:00:00  
07327447 Little Washita River near Cement, OK   3.30 10.8 3,770 2019-12-10 18:45:00  
07327550 Little Washita River East of Ninnekah, OK 20 6.95 32.7 9,920 2019-12-10 18:00:00 NKHO2
07328100 Washita River at Alex, OK 28 2.58 672 53,600 2019-12-10 18:00:00 ALXO2
07328180 North Criner Creek near Criner, OK   3.00 0.85 1,640 2019-12-10 18:15:00  
07328500 Washita River near Pauls Valley, OK 29 5.74 531 43,600 2019-12-10 18:30:00 PLVO2
07329605 Lake Humphreys near Duncan, OK   1176.74

 

  2019-12-10 18:00:00  
07329610 Lake Fuqua near Duncan, OK   1076.30

 

  2019-12-10 18:00:00  
07329700 Wildhorse Creek near Hoover, OK 25 10.20

 

40,600 2019-12-10 17:00:00 HVRO2
07329780 Honey Creek below Turner Falls near Davis, OK   1.44 9.12 8,270 2019-12-10 18:30:00  
07329849 01S-03E-01 ABB 1 Antelope Spring at Sulphur, OK   3.00 3.11 11.0 2019-12-10 18:00:00  
073298507 Travertine Creek above U.S. 177 at Sulphur   5.19 10.9 876 2019-12-10 18:00:00  
07329852 Rock Creek at Sulphur, OK   5.93 16.6 17,000 2019-12-10 18:45:00  
07331000 Washita River near Dickson, OK 27 8.27 638 126,000 2019-12-10 18:30:00 DURO2
07331200 Mill Creek near Mill Creek, OK   6.34 14.1 4,010 2019-12-10 17:30:00  
07331205 Mill Cr at Mouth of 3Mile Cr near Mill Cr , OK   6.15

 

  2019-12-10 18:00:00  
07331293 Pennington Creek North of Mill Creek, OK   3.23

 

  2019-12-10 18:30:00  
07331295 Pennington Creek East of Mill Creek, OK   2.90 33.5 2,510 2019-12-10 18:30:00  
07331300 Pennington Creek near Reagan, OK   11.08 60.3 9,970 2019-12-10 18:30:00  
07331383 Pennington Creek at Capitol Ave at Tishomingo, OK   1.40 131 9,360 2019-12-10 18:00:00  
07331455 Lake Texoma at Cumberland Cut nr Cumberland, OK   618.58

 

  2019-12-10 18:30:00  
07331600 Red River at Denison Dam nr Denison, TX   7.50 4,360 71,700 2019-12-10 18:00:00 DSTT2
07332307 Blue River near Franks, OK   5.67

 

  2019-12-10 18:30:00  
07332348 Blue River North of Connerville, OK   2.56

 

  2019-12-10 18:30:00  
07332390 Blue River near Connerville, OK   6.09 157 12,600 2019-12-10 17:45:00  
07332500 Blue River near Blue, OK 28 7.79 290 65,200 2019-12-10 18:30:00 BLUO2
07333010 Atoka Reservoir near Stringtown, OK   587.92

 

  2019-12-10 18:30:00  
07333900 McGee Creek Reservoir near Farris, OK   577.90

 

  2019-12-10 18:15:00 MGCO2
07334000 Muddy Boggy Creek near Farris, OK 43 11.50 656 61,900 2019-12-10 18:30:00 FRSO2
07334238 Sheep Creek Spring near Fittstown, OK   5.33 3.83 9.92 2019-12-10 18:30:00  
07334428 Delaware Cr Blw Del Cr Site 9 RSVR nr Bromide, OK   5.10

 

  2019-12-10 18:30:00  
07334800 Clear Boggy Creek abv Caney Creek nr Caney, OK 26 11.13 223 30,200 2019-12-10 17:30:00 CANO2
07335300 Muddy Boggy Creek near Unger, OK   12.33 816 76,700 2019-12-10 18:00:00  
07335500 Red River at Arthur City, TX 27 6.10 3,020 400,000 2019-12-10 18:00:00 ARCT2
07335700 Kiamichi River near Big Cedar, OK   3.68 48.3 27,400 2019-12-10 18:30:00  
07335790 Kiamichi River near Clayton, OK 17 5.77 1,100 48,600 2019-12-10 18:00:00 CLTO2
07335840 Pine Creek at Eubanks, OK   6.08

 

  2019-12-10 18:15:00  
07336200 Kiamichi River near Antlers, OK 25 5.75 1,290 62,300 2019-12-10 18:30:00 ANTO2
07336820 Red River near De Kalb, TX 24 12.06 7,200 299,000 2019-12-10 18:00:00 DEKT2
07337900 Glover River near Glover, OK 16 4.27 183 98,600 2019-12-10 18:30:00 GLOO2
07338500 Little River blw Lukfata Creek, nr Idabel, OK 30 8.31 1,120 103,000 2019-12-10 18:30:00 IDBO2
07338750 Mountain Fork at Smithville, OK   7.76 272 65,200 2019-12-10 18:30:00  
07339000 Mountain Fork near Eagletown, OK 11 2.53 1,050 101,000 2019-12-10 18:30:00 EAGO2